Time;durP1;ratioP1;P1;durP2;ratioP2;P2;SDS_P1;SDS_P2;PMS_P1;PMS_P2;Temp;Humidity;BMP_temperature;BMP_pressure;BME280_temperature;BME280_humidity;BME280_pressure;Samples;Min_cycle;Max_cycle;Signal;HPM_P1;HPM_P2
2023/05/08 00:01:03;;;;;;;11.90;4.82;;;12.20;99.90;;;;;;4880723;29;20064;-81
2023/05/08 00:03:30;;;;;;;13.00;4.75;;;12.20;99.90;;;;;;4897021;29;20072;-82
2023/05/08 00:05:59;;;;;;;12.20;4.40;;;12.10;99.90;;;;;;4886604;29;20476;-81
2023/05/08 00:08:25;;;;;;;12.43;4.55;;;12.10;99.90;;;;;;4886516;29;20041;-81
2023/05/08 00:10:52;;;;;;;13.75;4.40;;;12.10;99.90;;;;;;4887079;29;20041;-81
2023/05/08 00:13:19;;;;;;;12.10;4.50;;;12.10;99.90;;;;;;4885817;29;20095;-81
2023/05/08 00:15:45;;;;;;;11.88;4.00;;;12.00;99.90;;;;;;4885266;29;20363;-81
2023/05/08 00:18:12;;;;;;;12.13;4.15;;;12.00;99.90;;;;;;4887061;29;20053;-81
2023/05/08 00:20:39;;;;;;;11.73;4.15;;;12.00;99.90;;;;;;4901630;29;20441;-81
2023/05/08 00:23:05;;;;;;;13.15;4.65;;;12.00;99.90;;;;;;4886063;29;20045;-81
2023/05/08 00:28:19;;;;;;;17.50;4.70;;;11.90;99.90;;;;;;4886153;29;20380;-81
2023/05/08 00:30:45;;;;;;;11.20;4.55;;;11.90;99.90;;;;;;4885950;29;20044;-81
2023/05/08 00:33:12;;;;;;;13.38;5.15;;;11.80;99.90;;;;;;4886916;29;20118;-81
2023/05/08 00:35:44;;;;;;;12.98;4.18;;;11.80;99.90;;;;;;4885090;29;20052;-81
2023/05/08 00:38:11;;;;;;;;;;;11.80;99.90;;;;;;4884846;29;20425;-81
2023/05/08 00:40:38;;;;;;;10.75;3.97;;;11.70;99.90;;;;;;4886866;29;20391;-81
2023/05/08 00:43:05;;;;;;;16.13;4.80;;;11.70;99.90;;;;;;4900689;29;20432;-81
2023/05/08 00:45:32;;;;;;;14.10;4.30;;;11.60;99.90;;;;;;4901214;29;20384;-81
2023/05/08 00:47:58;;;;;;;13.93;4.45;;;11.60;99.90;;;;;;4886695;29;20116;-81
2023/05/08 00:50:25;;;;;;;16.50;4.78;;;11.60;99.90;;;;;;4885955;29;20045;-81
2023/05/08 00:52:52;;;;;;;12.40;4.18;;;11.60;99.90;;;;;;4885850;29;20555;-81
2023/05/08 00:55:20;;;;;;;12.93;4.22;;;11.60;99.90;;;;;;4900290;29;20224;-81
2023/05/08 00:57:47;;;;;;;15.80;3.90;;;11.60;99.90;;;;;;4886738;29;20049;-80
2023/05/08 01:00:14;;;;;;;12.55;4.45;;;11.50;99.90;;;;;;4886745;29;20068;-81
2023/05/08 01:02:40;;;;;;;14.40;4.85;;;11.50;99.90;;;;;;4900557;29;20492;-81
2023/05/08 01:05:07;;;;;;;15.57;4.53;;;11.50;99.90;;;;;;4901238;29;20049;-81
2023/05/08 01:07:37;;;;;;;12.20;4.28;;;11.50;99.90;;;;;;4870414;29;20063;-82
2023/05/08 01:10:04;;;;;;;12.38;4.05;;;11.40;99.90;;;;;;4869627;29;20049;-80
2023/05/08 01:12:31;;;;;;;16.08;4.88;;;11.40;99.90;;;;;;4870299;29;20143;-81
2023/05/08 01:14:57;;;;;;;12.32;4.40;;;11.30;99.90;;;;;;4897751;29;20087;-80
2023/05/08 01:17:24;;;;;;;11.68;4.30;;;11.30;99.90;;;;;;4884214;29;20049;-80
2023/05/08 01:19:51;;;;;;;12.05;4.07;;;11.30;99.90;;;;;;4898317;29;20053;-80
2023/05/08 01:22:17;;;;;;;12.00;4.30;;;11.30;99.90;;;;;;4866500;29;20052;-81
2023/05/08 01:24:44;;;;;;;10.52;4.20;;;11.20;99.90;;;;;;4883302;29;20049;-81
2023/05/08 01:29:57;;;;;;;9.40;3.90;;;11.20;99.90;;;;;;4881787;29;20409;-80
2023/05/08 01:32:25;;;;;;;10.00;3.42;;;11.20;99.90;;;;;;4867095;29;20135;-80
2023/05/08 01:34:51;;;;;;;15.27;4.20;;;11.20;99.90;;;;;;4881401;29;20101;-80
2023/05/08 01:37:18;;;;;;;11.73;4.47;;;11.10;99.90;;;;;;4898135;29;20049;-80
2023/05/08 01:39:45;;;;;;;12.23;4.25;;;11.10;99.90;;;;;;4882587;29;20049;-80
2023/05/08 01:42:12;;;;;;;10.40;4.15;;;11.00;99.90;;;;;;4897033;29;20068;-81
2023/05/08 01:44:38;;;;;;;10.02;4.00;;;11.00;99.90;;;;;;4882870;29;20392;-80
2023/05/08 01:47:06;;;;;;;13.85;3.70;;;11.00;99.90;;;;;;4866712;29;20048;-80
2023/05/08 01:49:34;;;;;;;10.73;4.20;;;11.00;99.90;;;;;;4881560;29;20064;-80
2023/05/08 01:52:00;;;;;;;10.73;4.03;;;11.00;99.90;;;;;;4897523;29;20385;-80
2023/05/08 01:54:27;;;;;;;9.60;3.70;;;11.00;99.90;;;;;;4882716;29;20437;-80
2023/05/08 01:56:54;;;;;;;9.55;3.20;;;11.00;99.90;;;;;;4882173;29;20056;-80
2023/05/08 01:59:21;;;;;;;10.05;3.70;;;10.90;99.90;;;;;;4881710;29;20060;-80
2023/05/08 02:01:47;;;;;;;12.50;3.30;;;10.90;99.90;;;;;;4896674;29;20461;-80
2023/05/08 02:04:14;;;;;;;9.70;4.00;;;10.90;99.90;;;;;;4882565;29;20055;-80
2023/05/08 02:06:43;;;;;;;12.63;3.50;;;10.90;99.90;;;;;;4897830;29;20144;-80
2023/05/08 02:09:11;;;;;;;12.57;4.22;;;10.80;99.90;;;;;;4896404;29;20045;-80
2023/05/08 02:11:37;;;;;;;13.35;3.80;;;10.80;99.90;;;;;;4881672;29;20052;-80
2023/05/08 02:14:04;;;;;;;9.98;3.85;;;10.80;99.90;;;;;;4896919;29;20059;-80
2023/05/08 02:16:33;;;;;;;11.82;3.80;;;10.70;99.90;;;;;;4880713;29;20123;-81
2023/05/08 02:18:59;;;;;;;8.05;3.55;;;10.80;99.90;;;;;;4882700;29;20109;-81
2023/05/08 02:21:26;;;;;;;11.02;3.65;;;10.70;99.90;;;;;;4897207;29;20465;-81
2023/05/08 02:23:53;;;;;;;11.57;3.90;;;10.70;99.90;;;;;;4881049;29;20055;-81
2023/05/08 02:26:21;;;;;;;8.73;3.30;;;10.70;99.90;;;;;;4881891;29;20051;-81
2023/05/08 02:28:47;;;;;;;11.57;3.38;;;10.70;99.90;;;;;;4881342;29;20127;-81
2023/05/08 02:31:14;;;;;;;10.05;3.60;;;10.70;99.90;;;;;;4881118;29;20041;-81
2023/05/08 02:33:41;;;;;;;8.90;3.10;;;10.70;99.90;;;;;;4880915;29;20368;-80
2023/05/08 02:36:08;;;;;;;10.55;3.50;;;10.70;99.90;;;;;;4880420;29;20117;-81
2023/05/08 02:38:35;;;;;;;8.75;3.42;;;10.60;99.90;;;;;;4881158;29;20468;-80
2023/05/08 02:41:02;;;;;;;10.32;3.40;;;10.60;99.90;;;;;;4881092;29;20105;-81
2023/05/08 02:43:29;;;;;;;8.80;2.97;;;10.50;99.90;;;;;;4895762;29;20180;-80
2023/05/08 02:45:57;;;;;;;9.57;3.35;;;10.50;99.90;;;;;;4896632;29;20045;-81
2023/05/08 02:48:24;;;;;;;9.32;3.30;;;10.50;99.90;;;;;;4895727;29;20041;-80
2023/05/08 02:50:51;;;;;;;10.23;3.45;;;10.40;99.90;;;;;;4881895;29;20421;-80
2023/05/08 02:53:17;;;;;;;9.27;3.17;;;10.40;99.90;;;;;;4883453;29;20514;-81
2023/05/08 02:55:47;;;;;;;10.50;3.30;;;10.30;99.90;;;;;;4861515;29;20080;-81
2023/05/08 02:58:13;;;;;;;8.90;3.25;;;10.30;99.90;;;;;;4878130;29;20081;-80
2023/05/08 03:00:40;;;;;;;8.13;2.97;;;10.20;99.90;;;;;;4861976;29;20056;-80
2023/05/08 03:03:07;;;;;;;7.88;2.95;;;10.20;99.90;;;;;;4877100;29;20087;-81
2023/05/08 03:05:35;;;;;;;10.57;2.78;;;10.20;99.90;;;;;;4877641;29;20137;-81
2023/05/08 03:08:02;;;;;;;10.75;3.35;;;10.10;99.90;;;;;;4877565;29;20043;-81
2023/05/08 03:10:29;;;;;;;7.00;2.80;;;10.10;99.90;;;;;;4876690;29;20056;-81
2023/05/08 03:12:55;;;;;;;8.25;3.47;;;10.10;99.90;;;;;;4862893;29;20049;-81
2023/05/08 03:15:22;;;;;;;10.10;2.88;;;10.10;99.90;;;;;;4876402;29;20430;-81
2023/05/08 03:17:49;;;;;;;8.27;3.08;;;10.10;99.90;;;;;;4863073;29;20042;-81
2023/05/08 03:20:16;;;;;;;8.52;2.90;;;10.10;99.90;;;;;;4862229;29;20499;-82
2023/05/08 03:22:43;;;;;;;11.98;3.13;;;10.10;99.90;;;;;;4876636;29;20041;-81
2023/05/08 03:25:10;;;;;;;8.88;3.33;;;10.10;99.90;;;;;;4877133;29;20041;-81
2023/05/08 03:30:08;;;;;;;12.15;3.92;;;10.10;99.90;;;;;;4861039;29;20069;-81
2023/05/08 03:32:37;;;;;;;9.93;3.25;;;10.00;99.90;;;;;;4877153;29;20041;-81
2023/05/08 03:35:04;;;;;;;12.10;4.03;;;10.00;99.90;;;;;;4876375;29;20136;-81
2023/05/08 03:40:03;;;;;;;;;;;9.80;99.90;;;;;;4877459;29;20365;-81
2023/05/08 03:42:29;;;;;;;13.63;3.42;;;9.80;99.90;;;;;;4876348;29;20283;-81
2023/05/08 03:44:57;;;;;;;9.98;3.20;;;9.80;99.90;;;;;;4876932;29;20087;-81
2023/05/08 03:47:27;;;;;;;9.60;3.10;;;9.80;99.90;;;;;;4877046;29;20132;-81
2023/05/08 03:49:55;;;;;;;12.70;3.58;;;9.80;99.90;;;;;;4860681;29;20430;-81
2023/05/08 03:52:24;;;;;;;9.82;3.22;;;9.80;99.90;;;;;;4876925;29;20158;-81
2023/05/08 03:54:51;;;;;;;15.10;4.10;;;9.80;99.90;;;;;;4875927;29;20053;-80
2023/05/08 03:59:49;;;;;;;12.25;3.88;;;9.70;99.90;;;;;;4862260;29;20140;-81
2023/05/08 04:02:16;;;;;;;10.25;3.33;;;9.70;99.90;;;;;;4860594;29;20046;-81
2023/05/08 04:04:44;;;;;;;9.32;3.35;;;9.70;99.90;;;;;;4876699;29;20057;-81
2023/05/08 04:07:15;;;;;;;8.75;3.30;;;9.70;99.90;;;;;;4876917;29;20059;-81
2023/05/08 04:09:44;;;;;;;8.38;3.28;;;9.70;99.90;;;;;;4861595;29;20125;-81
2023/05/08 04:12:11;;;;;;;11.07;3.47;;;9.70;99.90;;;;;;4876852;29;20051;-81
2023/05/08 04:14:38;;;;;;;8.25;3.35;;;9.70;99.90;;;;;;4876742;29;20532;-81
2023/05/08 04:17:07;;;;;;;10.68;3.40;;;9.70;99.90;;;;;;4860493;29;20125;-81
2023/05/08 04:19:34;;;;;;;8.95;3.25;;;9.70;99.90;;;;;;4862459;29;20105;-81
2023/05/08 04:22:02;;;;;;;13.10;3.80;;;9.70;99.90;;;;;;4875819;29;20105;-81
2023/05/08 04:24:28;;;;;;;8.23;3.10;;;9.70;99.90;;;;;;4861051;29;20504;-81
2023/05/08 04:26:56;;;;;;;8.43;3.40;;;9.80;99.90;;;;;;4876629;29;20049;-81
2023/05/08 04:29:23;;;;;;;9.25;2.95;;;9.80;99.90;;;;;;4875845;29;20153;-81
2023/05/08 04:31:50;;;;;;;7.90;2.80;;;9.80;99.90;;;;;;4876673;29;20041;-81
2023/05/08 04:34:17;;;;;;;8.63;3.15;;;9.90;99.90;;;;;;4876327;29;20174;-81
2023/05/08 04:36:47;;;;;;;9.93;3.15;;;9.90;99.90;;;;;;4875863;29;20092;-81
2023/05/08 04:39:14;;;;;;;8.27;3.03;;;9.90;99.90;;;;;;4876506;29;20086;-81
2023/05/08 04:41:41;;;;;;;12.20;3.85;;;9.90;99.90;;;;;;4875833;29;20049;-81
2023/05/08 04:44:08;;;;;;;13.32;3.25;;;9.90;99.90;;;;;;4876371;29;20049;-81
2023/05/08 04:49:39;;;;;;;10.95;3.60;;;10.00;99.90;;;;;;4877539;29;20110;-81
2023/05/08 04:52:06;;;;;;;7.30;3.20;;;10.10;99.90;;;;;;4883574;29;20052;-81
2023/05/08 04:54:33;;;;;;;10.18;3.20;;;10.10;99.90;;;;;;4882679;29;20049;-81
2023/05/08 04:57:00;;;;;;;10.43;4.00;;;10.20;99.90;;;;;;4881875;29;20052;-81
2023/05/08 04:59:28;;;;;;;10.70;3.40;;;10.20;99.90;;;;;;4882792;29;20085;-81
2023/05/08 05:01:55;;;;;;;7.68;2.85;;;10.30;99.90;;;;;;4881974;29;20052;-81
2023/05/08 05:04:21;;;;;;;8.93;3.25;;;10.30;99.90;;;;;;4898160;29;20061;-81
2023/05/08 05:06:49;;;;;;;7.95;3.10;;;10.30;99.90;;;;;;4882769;29;20055;-81
2023/05/08 05:09:16;;;;;;;8.27;2.85;;;10.40;99.90;;;;;;4881749;29;20060;-81
2023/05/08 05:11:42;;;;;;;8.85;3.15;;;10.40;99.90;;;;;;4898174;29;20104;-81
2023/05/08 05:14:09;;;;;;;10.32;3.50;;;10.50;99.90;;;;;;4882512;29;20140;-81
2023/05/08 05:16:36;;;;;;;8.80;3.08;;;10.70;99.90;;;;;;4881865;29;20044;-81
2023/05/08 05:19:03;;;;;;;8.02;2.88;;;10.80;99.90;;;;;;4882741;29;20060;-81
2023/05/08 05:21:31;;;;;;;8.23;3.13;;;10.90;99.90;;;;;;4897441;29;20131;-80
2023/05/08 05:23:57;;;;;;;13.70;3.28;;;11.00;99.90;;;;;;4882492;29;20072;-81
2023/05/08 05:29:10;;;;;;;10.20;3.47;;;11.20;99.90;;;;;;4897203;29;20144;-81
2023/05/08 05:31:37;;;;;;;9.50;3.53;;;11.30;99.90;;;;;;4882439;29;20041;-81
2023/05/08 05:34:04;;;;;;;8.27;2.97;;;11.40;99.90;;;;;;4882209;29;20052;-81
2023/05/08 05:36:32;;;;;;;7.47;2.80;;;11.40;99.90;;;;;;4881587;29;20445;-81
2023/05/08 05:38:58;;;;;;;10.95;2.65;;;11.50;99.90;;;;;;4882247;29;20124;-81
2023/05/08 05:41:25;;;;;;;11.25;2.47;;;11.60;99.90;;;;;;4897764;29;20049;-81
2023/05/08 05:43:52;;;;;;;12.00;3.30;;;11.70;99.90;;;;;;4881169;29;20049;-81
2023/05/08 05:46:19;;;;;;;10.55;3.22;;;11.80;99.90;;;;;;4882179;29;20105;-81
2023/05/08 05:48:46;;;;;;;12.43;2.80;;;11.90;99.90;;;;;;4881221;29;20072;-81
2023/05/08 05:51:13;;;;;;;10.77;3.00;;;12.00;99.90;;;;;;4897492;29;20041;-81
2023/05/08 05:53:40;;;;;;;11.48;3.05;;;12.10;99.90;;;;;;4865774;29;20049;-81
2023/05/08 05:56:06;;;;;;;10.77;3.50;;;12.10;99.90;;;;;;4877853;29;20041;-81
2023/05/08 05:58:33;;;;;;;10.25;3.30;;;12.20;99.90;;;;;;4879081;29;20053;-81
2023/05/08 06:01:03;;;;;;;8.18;3.35;;;12.30;99.90;;;;;;4869917;29;20060;-82
2023/05/08 06:03:30;;;;;;;10.68;3.75;;;12.40;99.90;;;;;;4865451;29;20056;-81
2023/05/08 06:08:28;;;;;;;11.18;3.20;;;12.50;99.90;;;;;;4896558;29;20076;-81
2023/05/08 06:10:55;;;;;;;15.50;3.35;;;12.60;99.90;;;;;;4881732;29;20041;-81
2023/05/08 06:13:22;;;;;;;11.18;3.42;;;12.70;99.90;;;;;;4893761;29;20528;-81
2023/05/08 06:18:35;;;;;;;8.18;3.10;;;12.90;99.90;;;;;;4863089;29;20481;-81
2023/05/08 06:21:02;;;;;;;9.95;3.30;;;13.10;99.90;;;;;;4864181;29;20046;-81
2023/05/08 06:23:28;;;;;;;13.35;3.47;;;13.20;99.90;;;;;;4862088;29;20476;-81
2023/05/08 06:25:57;;;;;;;11.70;3.92;;;13.30;99.90;;;;;;4863767;29;20049;-81
2023/05/08 06:28:24;;;;;;;9.32;3.50;;;13.40;99.90;;;;;;4862360;29;20053;-81
2023/05/08 06:30:51;;;;;;;9.90;3.50;;;13.50;99.90;;;;;;4878201;29;20045;-81
2023/05/08 06:33:18;;;;;;;11.35;3.72;;;13.60;99.90;;;;;;4862710;29;20053;-81
2023/05/08 06:35:46;;;;;;;11.15;3.63;;;13.80;99.90;;;;;;4862000;29;20037;-81
2023/05/08 06:38:13;;;;;;;10.35;3.85;;;13.90;99.90;;;;;;4863597;29;20056;-81
2023/05/08 06:40:40;;;;;;;7.72;3.33;;;14.00;99.90;;;;;;4893854;29;20045;-81
2023/05/08 06:43:06;;;;;;;12.73;3.83;;;14.00;99.90;;;;;;4861671;29;20124;-81
2023/05/08 06:45:34;;;;;;;11.75;4.32;;;14.10;99.90;;;;;;4862547;29;20045;-80
2023/05/08 06:48:01;;;;;;;9.57;4.28;;;14.10;99.90;;;;;;4863482;29;20050;-81
2023/05/08 06:50:27;;;;;;;10.23;4.03;;;14.30;99.90;;;;;;4876920;29;20529;-80
2023/05/08 06:52:54;;;;;;;11.18;4.30;;;14.50;99.90;;;;;;4863269;29;20061;-81
2023/05/08 06:55:21;;;;;;;9.82;3.88;;;14.60;99.90;;;;;;4862564;29;20124;-81
2023/05/08 06:57:47;;;;;;;10.95;3.40;;;14.70;99.90;;;;;;4862330;29;20054;-81
2023/05/08 07:00:15;;;;;;;10.73;3.70;;;14.60;99.90;;;;;;4877905;29;20062;-81
2023/05/08 07:02:41;;;;;;;10.20;3.42;;;14.60;99.90;;;;;;4862221;29;20461;-81
2023/05/08 07:05:08;;;;;;;10.55;3.70;;;14.60;99.90;;;;;;4862202;29;20057;-82
2023/05/08 07:10:39;;;;;;;10.43;3.67;;;14.70;99.90;;;;;;4862141;29;20377;-81
2023/05/08 07:13:06;;;;;;;9.23;3.63;;;14.90;99.90;;;;;;4861894;29;20057;-81
2023/05/08 07:18:18;;;;;;;11.82;4.18;;;15.00;99.90;;;;;;4863110;29;20053;-81
2023/05/08 07:20:45;;;;;;;9.80;3.85;;;15.20;99.90;;;;;;4863235;29;20045;-81
2023/05/08 07:23:11;;;;;;;10.88;4.10;;;15.10;99.90;;;;;;4861033;29;20049;-81
2023/05/08 07:28:10;;;;;;;;;;;15.00;99.90;;;;;;4862974;29;20049;-80
2023/05/08 07:30:36;;;;;;;9.38;3.97;;;14.90;99.90;;;;;;4862794;29;19928;-80
2023/05/08 07:33:03;;;;;;;9.27;3.78;;;14.80;99.90;;;;;;4893060;29;20518;-81
2023/05/08 07:35:33;;;;;;;11.65;3.58;;;14.80;99.90;;;;;;4861921;29;20045;-80
2023/05/08 07:37:59;;;;;;;10.27;3.88;;;14.90;99.90;;;;;;4862008;29;20181;-81
2023/05/08 07:40:26;;;;;;;11.45;4.50;;;14.90;99.90;;;;;;4862935;29;20076;-81
2023/05/08 07:42:53;;;;;;;11.88;3.88;;;14.80;99.90;;;;;;4861491;29;20547;-80
2023/05/08 07:45:19;;;;;;;9.10;3.97;;;15.00;99.90;;;;;;4861596;29;20056;-80
2023/05/08 07:47:46;;;;;;;8.20;3.35;;;14.90;99.90;;;;;;4861609;29;20069;-80
2023/05/08 07:50:13;;;;;;;11.35;4.13;;;15.00;99.90;;;;;;4860688;29;20045;-80
2023/05/08 07:52:39;;;;;;;7.82;3.30;;;15.00;99.90;;;;;;4870113;29;20482;-80
2023/05/08 07:55:06;;;;;;;8.82;3.75;;;14.90;99.90;;;;;;4877658;29;20045;-82
2023/05/08 07:57:33;;;;;;;10.68;4.00;;;14.80;99.90;;;;;;4879659;29;20064;-82
2023/05/08 07:59:59;;;;;;;9.70;3.63;;;15.00;99.90;;;;;;4864246;29;20094;-79
2023/05/08 08:02:26;;;;;;;7.53;3.17;;;15.10;99.90;;;;;;4879538;29;20049;-79
2023/05/08 08:04:53;;;;;;;11.00;3.50;;;15.20;99.90;;;;;;4891977;29;20440;-79
2023/05/08 08:09:49;;;;;;;8.73;3.08;;;15.20;99.90;;;;;;4884242;29;20392;-80
2023/05/08 08:12:16;;;;;;;8.68;3.38;;;15.30;99.90;;;;;;4894884;29;20064;-81
2023/05/08 08:14:43;;;;;;;8.63;3.20;;;15.30;99.90;;;;;;4894477;29;20113;-80
2023/05/08 08:17:10;;;;;;;12.07;3.80;;;15.40;99.90;;;;;;4879260;29;20052;-80
2023/05/08 08:19:37;;;;;;;8.95;3.58;;;15.50;99.90;;;;;;4880404;29;20056;-80
2023/05/08 08:22:03;;;;;;;9.07;3.65;;;15.60;99.90;;;;;;4878985;29;20131;-79
2023/05/08 08:24:30;;;;;;;8.27;3.50;;;15.60;99.90;;;;;;4881265;29;20353;-79
2023/05/08 08:26:57;;;;;;;8.35;3.20;;;15.40;99.90;;;;;;4883494;29;20124;-80
2023/05/08 08:29:24;;;;;;;9.50;3.53;;;15.50;99.90;;;;;;4867470;29;20065;-80
2023/05/08 08:31:51;;;;;;;9.23;3.75;;;15.40;99.90;;;;;;4883197;29;20049;-82
2023/05/08 08:34:17;;;;;;;9.80;3.85;;;15.20;99.90;;;;;;4882542;29;20037;-84
2023/05/08 08:36:45;;;;;;;10.63;4.38;;;15.10;99.90;;;;;;4866532;29;20049;-82
2023/05/08 08:39:15;;;;;;;10.30;4.32;;;15.00;99.90;;;;;;4889401;29;20037;-83
2023/05/08 08:41:42;;;;;;;9.20;4.20;;;15.10;99.90;;;;;;4897500;29;20131;-82
2023/05/08 08:44:09;;;;;;;12.95;4.13;;;15.10;99.90;;;;;;4877525;29;20365;-83
2023/05/08 08:49:25;;;;;;;11.40;3.97;;;15.30;99.90;;;;;;4870526;29;20397;-83
2023/05/08 08:51:52;;;;;;;12.77;3.67;;;15.40;99.90;;;;;;4865862;29;20060;-83
2023/05/08 08:54:18;;;;;;;8.32;3.67;;;15.50;99.90;;;;;;4900626;29;20068;-86
2023/05/08 08:59:31;;;;;;;9.93;3.45;;;15.80;99.90;;;;;;4898256;29;20049;-83
2023/05/08 09:01:57;;;;;;;7.65;2.78;;;16.00;99.90;;;;;;4897400;29;20111;-85
2023/05/08 09:04:26;;;;;;;9.68;3.40;;;16.20;99.90;;;;;;4876857;29;20376;-84
2023/05/08 09:06:53;;;;;;;9.20;3.30;;;16.20;99.90;;;;;;4897561;29;20037;-84
2023/05/08 09:09:21;;;;;;;9.80;3.30;;;16.40;99.90;;;;;;4865783;29;20053;-85
2023/05/08 09:11:48;;;;;;;8.23;3.40;;;16.60;99.90;;;;;;4866860;29;20136;-84
2023/05/08 09:14:14;;;;;;;9.02;2.97;;;16.50;99.90;;;;;;4866651;29;20085;-84
2023/05/08 09:16:42;;;;;;;9.57;2.95;;;16.70;99.90;;;;;;4896909;29;20052;-81
2023/05/08 09:19:09;;;;;;;7.47;2.50;;;16.80;99.90;;;;;;4882753;29;20455;-85
2023/05/08 09:21:39;;;;;;;7.68;2.65;;;17.00;99.90;;;;;;4883378;29;20049;-85
2023/05/08 09:24:05;;;;;;;7.90;2.22;;;17.20;99.90;;;;;;4897107;29;20052;-82
2023/05/08 09:29:03;;;;;;;7.57;2.03;;;16.80;99.90;;;;;;4900103;29;20186;-82
2023/05/08 09:31:30;;;;;;;6.80;2.13;;;16.90;99.90;;;;;;4900854;29;20036;-81
2023/05/08 09:33:58;;;;;;;7.15;2.00;;;16.90;99.90;;;;;;4889097;29;20041;-81
2023/05/08 09:36:27;;;;;;;8.07;2.10;;;16.80;99.90;;;;;;4881065;29;20041;-80
2023/05/08 09:38:54;;;;;;;7.22;1.90;;;16.80;99.90;;;;;;4881997;29;20369;-80
2023/05/08 09:41:22;;;;;;;6.78;1.92;;;16.70;99.90;;;;;;4884113;29;20045;-82
2023/05/08 09:43:50;;;;;;;7.22;2.08;;;16.80;99.90;;;;;;4881901;29;20076;-82
2023/05/08 09:48:48;;;;;;;5.78;1.90;;;16.80;99.90;;;;;;4882260;29;20057;-82
2023/05/08 09:51:14;;;;;;;6.68;2.13;;;16.60;99.90;;;;;;4882619;29;20469;-82
2023/05/08 09:53:41;;;;;;;6.47;1.80;;;16.40;99.90;;;;;;4882255;29;20045;-87
2023/05/08 09:56:09;;;;;;;7.22;2.20;;;16.50;99.90;;;;;;4895935;29;20041;-83
2023/05/08 09:58:35;;;;;;;9.93;2.20;;;16.60;99.90;;;;;;4882198;29;20151;-85
2023/05/08 10:01:02;;;;;;;5.85;1.80;;;16.70;99.90;;;;;;4880911;29;20116;-84
2023/05/08 10:03:29;;;;;;;5.38;1.77;;;16.70;99.90;;;;;;4880107;29;20049;-84
2023/05/08 10:05:58;;;;;;;5.45;1.80;;;16.70;99.90;;;;;;4865745;29;20053;-86
2023/05/08 10:08:25;;;;;;;5.72;1.70;;;16.70;99.90;;;;;;4865022;29;20057;-86
2023/05/08 10:10:52;;;;;;;11.90;2.20;;;16.90;99.90;;;;;;4881573;29;20045;-84
2023/05/08 10:13:19;;;;;;;6.65;2.10;;;17.00;99.90;;;;;;4865704;29;20140;-84
2023/05/08 10:15:48;;;;;;;9.82;2.33;;;17.00;99.90;;;;;;4881196;29;20041;-85
2023/05/08 10:18:14;;;;;;;8.27;2.38;;;17.00;99.90;;;;;;4861549;29;20408;-86
2023/05/08 10:20:43;;;;;;;8.25;1.98;;;17.00;99.90;;;;;;4878064;29;20045;-85
2023/05/08 10:23:10;;;;;;;7.72;2.33;;;17.10;99.90;;;;;;4877140;29;20053;-85
2023/05/08 10:25:39;;;;;;;6.68;1.88;;;17.20;99.90;;;;;;4862745;29;20073;-85
2023/05/08 10:28:05;;;;;;;9.85;2.15;;;17.20;99.90;;;;;;4880983;29;20528;-84
2023/05/08 10:30:32;;;;;;;8.77;2.10;;;17.30;99.90;;;;;;4880341;29;20077;-86
2023/05/08 10:32:59;;;;;;;7.55;2.13;;;17.30;99.90;;;;;;4865459;29;20104;-86
2023/05/08 10:35:26;;;;;;;9.40;2.35;;;17.20;99.90;;;;;;4865036;29;20139;-85
2023/05/08 10:37:52;;;;;;;7.22;2.10;;;17.00;99.90;;;;;;4896316;29;20049;-85
2023/05/08 10:40:20;;;;;;;6.65;1.70;;;17.00;99.90;;;;;;4874441;29;20041;-83
2023/05/08 10:42:47;;;;;;;9.05;2.08;;;17.10;99.90;;;;;;4879457;29;20045;-85
2023/05/08 10:45:14;;;;;;;8.20;1.80;;;17.10;99.90;;;;;;4868289;29;20157;-83
2023/05/08 10:50:26;;;;;;;6.60;1.73;;;17.20;99.90;;;;;;4886328;29;20487;-83
2023/05/08 10:52:53;;;;;;;8.20;2.13;;;17.30;99.90;;;;;;4888466;29;20051;-83
2023/05/08 10:55:20;;;;;;;8.00;1.85;;;17.30;99.90;;;;;;4894349;29;20045;-83
2023/05/08 10:57:47;;;;;;;7.45;1.77;;;17.40;99.90;;;;;;4894466;29;20059;-82
2023/05/08 11:00:14;;;;;;;8.38;1.83;;;17.50;99.90;;;;;;4890249;29;20061;-82
2023/05/08 11:02:41;;;;;;;9.48;1.73;;;17.80;99.90;;;;;;4880454;29;20737;-81
2023/05/08 11:05:08;;;;;;;6.80;1.60;;;18.00;99.90;;;;;;4881527;29;20056;-81
2023/05/08 11:07:36;;;;;;;4.35;1.40;;;18.10;99.90;;;;;;4877214;29;20056;-81
2023/05/08 11:10:03;;;;;;;5.40;1.70;;;18.00;99.90;;;;;;4876384;29;20052;-82
2023/05/08 11:12:30;;;;;;;5.95;1.60;;;17.80;99.90;;;;;;4861923;29;20041;-83
2023/05/08 11:14:57;;;;;;;9.93;1.92;;;17.80;99.90;;;;;;4894092;29;20055;-82
2023/05/08 11:17:25;;;;;;;7.13;1.80;;;17.80;99.90;;;;;;4864442;29;20102;-82
2023/05/08 11:19:52;;;;;;;5.85;1.83;;;17.90;99.90;;;;;;4881171;29;20045;-81
2023/05/08 11:22:19;;;;;;;4.55;1.65;;;18.00;99.90;;;;;;4894007;29;20114;-81
2023/05/08 11:24:45;;;;;;;8.32;2.10;;;17.60;99.90;;;;;;4880573;29;20461;-82
2023/05/08 11:29:59;;;;;;;6.20;1.70;;;17.30;99.90;;;;;;4879085;29;20049;-82
2023/05/08 11:32:25;;;;;;;5.35;1.67;;;17.20;99.90;;;;;;4893084;29;20045;-84
2023/05/08 11:34:52;;;;;;;5.85;1.83;;;17.10;99.90;;;;;;4895059;29;20052;-83
2023/05/08 11:37:20;;;;;;;4.97;1.73;;;17.00;99.90;;;;;;4864685;29;20041;-80
2023/05/08 11:39:46;;;;;;;5.70;1.45;;;16.90;99.90;;;;;;4880366;29;20471;-81
2023/05/08 11:42:13;;;;;;;5.97;1.98;;;17.00;99.90;;;;;;4879091;29;20053;-82
2023/05/08 11:44:40;;;;;;;5.65;1.77;;;17.20;99.90;;;;;;4879746;29;20064;-83
2023/05/08 11:49:52;;;;;;;8.27;1.60;;;17.50;99.90;;;;;;4894812;29;20518;-82
2023/05/08 11:52:19;;;;;;;8.52;1.80;;;17.60;99.90;;;;;;4879434;29;20048;-83
2023/05/08 11:54:46;;;;;;;6.47;1.80;;;17.50;99.90;;;;;;4881044;29;20037;-87
2023/05/08 11:57:14;;;;;;;6.28;1.50;;;17.30;99.90;;;;;;4879738;29;20052;-84
2023/05/08 11:59:42;;;;;;;4.20;1.40;;;17.20;99.90;;;;;;4879756;29;20124;-84
2023/05/08 12:02:09;;;;;;;4.93;1.52;;;17.10;99.90;;;;;;4894148;29;20147;-84
2023/05/08 12:04:35;;;;;;;9.07;1.90;;;17.10;99.90;;;;;;4894926;29;20059;-85
2023/05/08 12:10:05;;;;;;;5.47;1.42;;;16.80;99.90;;;;;;4880208;29;20169;-84
2023/05/08 12:12:32;;;;;;;4.95;1.50;;;16.80;99.90;;;;;;4879833;29;20380;-82
2023/05/08 12:14:59;;;;;;;10.55;2.00;;;16.80;99.90;;;;;;4894620;29;20053;-84
2023/05/08 12:20:12;;;;;;;6.47;1.50;;;16.50;99.90;;;;;;4879566;29;20049;-84
2023/05/08 12:22:39;;;;;;;5.75;1.60;;;16.50;99.90;;;;;;4879228;29;20049;-82
2023/05/08 12:25:06;;;;;;;7.05;2.00;;;16.60;99.90;;;;;;4880041;29;20061;-85
2023/05/08 12:27:33;;;;;;;6.80;1.88;;;16.80;99.90;;;;;;4880543;29;20041;-84
2023/05/08 12:30:01;;;;;;;8.55;1.67;;;16.80;99.90;;;;;;4879960;29;20071;-85
2023/05/08 12:32:28;;;;;;;7.70;1.70;;;17.00;99.90;;;;;;4879467;29;20041;-84
2023/05/08 12:34:55;;;;;;;6.72;1.75;;;16.90;99.90;;;;;;4862133;29;20421;-86
2023/05/08 12:37:21;;;;;;;5.57;1.60;;;16.90;99.90;;;;;;4863371;29;20460;-85
2023/05/08 12:39:48;;;;;;;3.92;1.45;;;17.20;99.90;;;;;;4879285;29;20045;-84
2023/05/08 12:42:15;;;;;;;8.48;1.50;;;17.40;99.90;;;;;;4893127;29;20093;-84
2023/05/08 12:44:42;;;;;;;4.78;1.15;;;17.30;99.90;;;;;;4864585;29;20120;-85
2023/05/08 12:49:54;;;;;;;4.20;1.35;;;16.70;99.90;;;;;;4879381;29;20173;-88
2023/05/08 12:52:22;;;;;;;4.45;1.30;;;16.50;99.90;;;;;;4864383;29;20045;-90
2023/05/08 12:54:49;;;;;;;5.53;1.50;;;16.40;99.90;;;;;;4865197;29;20045;-89
2023/05/08 13:00:03;;;;;;;5.05;1.35;;;16.70;99.90;;;;;;4876862;29;20404;-88
2023/05/08 13:02:30;;;;;;;4.38;1.35;;;16.90;99.90;;;;;;4861163;29;20059;-89
2023/05/08 13:04:58;;;;;;;5.28;1.35;;;17.10;99.90;;;;;;4861816;29;20148;-89
2023/05/08 13:07:25;;;;;;;4.40;1.30;;;17.30;99.90;;;;;;4877042;29;20465;-89
2023/05/08 13:09:51;;;;;;;3.50;1.30;;;17.60;99.90;;;;;;4894157;29;20049;-85
2023/05/08 13:12:18;;;;;;;5.05;1.60;;;17.70;99.90;;;;;;4881873;29;20148;-88
2023/05/08 13:14:45;;;;;;;5.18;1.50;;;17.50;99.90;;;;;;4882726;29;20092;-88
2023/05/08 13:17:12;;;;;;;4.68;1.40;;;17.30;99.90;;;;;;4861883;29;20113;-87
2023/05/08 13:19:38;;;;;;;5.80;1.40;;;17.20;99.90;;;;;;4867656;29;20120;-87
2023/05/08 13:22:05;;;;;;;4.20;1.13;;;17.40;99.90;;;;;;4897846;29;20103;-90
2023/05/08 13:24:39;;;;;;;4.35;1.30;;;17.50;99.90;;;;;;4868667;29;20053;-88
2023/05/08 13:30:09;;;;;;;4.45;1.15;;;17.70;99.90;;;;;;4882905;29;20047;-86
2023/05/08 13:32:36;;;;;;;4.25;1.35;;;18.20;99.90;;;;;;4881751;29;20520;-84
2023/05/08 13:35:03;;;;;;;3.38;1.20;;;18.40;99.90;;;;;;4865477;29;20121;-86
2023/05/08 13:37:30;;;;;;;4.07;1.20;;;18.50;99.90;;;;;;4866618;29;20049;-86
2023/05/08 13:39:56;;;;;;;3.97;1.20;;;18.40;99.90;;;;;;4866566;29;20060;-85
2023/05/08 13:42:23;;;;;;;4.20;1.23;;;18.40;99.90;;;;;;4880626;29;20071;-85
2023/05/08 13:44:50;;;;;;;3.75;1.30;;;18.40;99.90;;;;;;4866561;29;20049;-85
2023/05/08 13:47:16;;;;;;;5.25;1.45;;;18.50;99.90;;;;;;4897522;29;20045;-85
2023/05/08 13:49:45;;;;;;;4.47;1.27;;;19.10;99.90;;;;;;4874629;29;20092;-85
2023/05/08 13:52:12;;;;;;;4.70;1.23;;;20.10;99.90;;;;;;4880975;29;20051;-86